sensor_id;sensor_type;location;lat;lon;timestamp;pressure;altitude;pressure_sealevel;temperature;humidity
31092;BME280;67728;53.122;12.776;2023-02-12T00:00:20;102471.19;;;5.96;85.81
31092;BME280;67728;53.122;12.776;2023-02-12T00:01:51;102465.81;;;5.90;85.83
31092;BME280;67728;53.122;12.776;2023-02-12T00:03:23;102470.97;;;5.90;86.13
31092;BME280;67728;53.122;12.776;2023-02-12T00:04:53;102471.06;;;5.93;86.27
31092;BME280;67728;53.122;12.776;2023-02-12T00:06:26;102479.50;;;5.89;85.85
31092;BME280;67728;53.122;12.776;2023-02-12T00:07:57;102481.81;;;5.82;85.94
31092;BME280;67728;53.122;12.776;2023-02-12T00:09:28;102476.66;;;5.82;86.00
31092;BME280;67728;53.122;12.776;2023-02-12T00:11:06;102481.25;;;5.89;86.19
31092;BME280;67728;53.122;12.776;2023-02-12T00:12:39;102480.38;;;5.88;86.02
31092;BME280;67728;53.122;12.776;2023-02-12T00:14:10;102479.50;;;5.89;85.98
31092;BME280;67728;53.122;12.776;2023-02-12T00:15:42;102485.53;;;5.90;85.71
31092;BME280;67728;53.122;12.776;2023-02-12T00:17:13;102497.53;;;5.89;86.13
31092;BME280;67728;53.122;12.776;2023-02-12T00:18:45;102494.34;;;5.96;86.03
31092;BME280;67728;53.122;12.776;2023-02-12T00:20:16;102500.22;;;5.92;85.50
31092;BME280;67728;53.122;12.776;2023-02-12T00:21:49;102493.47;;;5.96;85.51
31092;BME280;67728;53.122;12.776;2023-02-12T00:23:21;102490.00;;;5.94;85.40
31092;BME280;67728;53.122;12.776;2023-02-12T00:24:53;102493.38;;;5.93;85.33
31092;BME280;67728;53.122;12.776;2023-02-12T00:26:24;102488.19;;;5.91;85.25
31092;BME280;67728;53.122;12.776;2023-02-12T00:27:56;102484.72;;;5.91;85.53
31092;BME280;67728;53.122;12.776;2023-02-12T00:29:27;102479.59;;;5.91;85.82
31092;BME280;67728;53.122;12.776;2023-02-12T00:31:04;102472.63;;;5.88;85.71
31092;BME280;67728;53.122;12.776;2023-02-12T00:32:36;102479.50;;;5.89;85.76
31092;BME280;67728;53.122;12.776;2023-02-12T00:34:08;102483.91;;;5.92;85.71
31092;BME280;67728;53.122;12.776;2023-02-12T00:35:40;102480.56;;;5.94;85.19
31092;BME280;67728;53.122;12.776;2023-02-12T00:37:12;102498.53;;;5.93;85.58
31092;BME280;67728;53.122;12.776;2023-02-12T00:38:44;102485.63;;;5.91;85.25
31092;BME280;67728;53.122;12.776;2023-02-12T00:40:16;102485.75;;;5.96;85.30
31092;BME280;67728;53.122;12.776;2023-02-12T00:41:47;102490.78;;;5.93;85.26
31092;BME280;67728;53.122;12.776;2023-02-12T00:43:19;102490.91;;;5.96;85.21
31092;BME280;67728;53.122;12.776;2023-02-12T00:44:50;102489.09;;;5.93;84.89
31092;BME280;67728;53.122;12.776;2023-02-12T00:46:22;102490.69;;;5.90;85.17
31092;BME280;67728;53.122;12.776;2023-02-12T00:47:54;102494.97;;;5.89;85.10
31092;BME280;67728;53.122;12.776;2023-02-12T00:49:25;102491.56;;;5.90;85.09
31092;BME280;67728;53.122;12.776;2023-02-12T00:50:57;102487.31;;;5.91;85.28
31092;BME280;67728;53.122;12.776;2023-02-12T00:52:30;102493.28;;;5.90;85.00
31092;BME280;67728;53.122;12.776;2023-02-12T00:54:02;102492.47;;;5.91;85.13
31092;BME280;67728;53.122;12.776;2023-02-12T00:55:34;102501.19;;;5.96;85.09
31092;BME280;67728;53.122;12.776;2023-02-12T00:57:04;102502.91;;;5.95;85.12
31092;BME280;67728;53.122;12.776;2023-02-12T00:58:36;102503.56;;;5.90;84.57
31092;BME280;67728;53.122;12.776;2023-02-12T01:00:09;102510.53;;;5.92;85.24
31092;BME280;67728;53.122;12.776;2023-02-12T01:01:40;102511.28;;;5.90;85.01
31092;BME280;67728;53.122;12.776;2023-02-12T01:03:12;102512.19;;;5.90;85.29
31092;BME280;67728;53.122;12.776;2023-02-12T01:04:44;102513.75;;;5.85;84.89
31092;BME280;67728;53.122;12.776;2023-02-12T01:06:15;102509.59;;;5.90;85.51
31092;BME280;67728;53.122;12.776;2023-02-12T01:07:49;102516.44;;;5.90;85.19
31092;BME280;67728;53.122;12.776;2023-02-12T01:09:21;102513.06;;;5.91;85.20
31092;BME280;67728;53.122;12.776;2023-02-12T01:10:54;102515.66;;;5.92;85.03
31092;BME280;67728;53.122;12.776;2023-02-12T01:12:26;102520.78;;;5.91;84.90
31092;BME280;67728;53.122;12.776;2023-02-12T01:13:58;102521.50;;;5.87;85.15
31092;BME280;67728;53.122;12.776;2023-02-12T01:15:30;102520.03;;;5.95;84.72
31092;BME280;67728;53.122;12.776;2023-02-12T01:17:01;102517.44;;;5.93;84.71
31092;BME280;67728;53.122;12.776;2023-02-12T01:18:34;102523.34;;;5.91;84.56
31092;BME280;67728;53.122;12.776;2023-02-12T01:20:08;102524.34;;;5.94;84.78
31092;BME280;67728;53.122;12.776;2023-02-12T01:21:40;102529.44;;;5.93;85.01
31092;BME280;67728;53.122;12.776;2023-02-12T01:23:13;102531.91;;;5.90;84.41
31092;BME280;67728;53.122;12.776;2023-02-12T01:24:43;102538.81;;;5.91;85.09
31092;BME280;67728;53.122;12.776;2023-02-12T01:26:16;102528.63;;;5.94;84.93
31092;BME280;67728;53.122;12.776;2023-02-12T01:27:51;102532.75;;;5.89;85.18
31092;BME280;67728;53.122;12.776;2023-02-12T01:29:23;102535.31;;;5.89;85.15
31092;BME280;67728;53.122;12.776;2023-02-12T01:30:55;102541.53;;;5.95;84.95
31092;BME280;67728;53.122;12.776;2023-02-12T01:32:26;102540.66;;;5.95;84.98
31092;BME280;67728;53.122;12.776;2023-02-12T01:33:58;102550.00;;;5.91;84.98
31092;BME280;67728;53.122;12.776;2023-02-12T01:35:30;102547.34;;;5.90;84.93
31092;BME280;67728;53.122;12.776;2023-02-12T01:37:02;102551.59;;;5.88;84.89
31092;BME280;67728;53.122;12.776;2023-02-12T01:38:35;102553.28;;;5.87;85.08
31092;BME280;67728;53.122;12.776;2023-02-12T01:40:08;102543.09;;;5.90;84.87
31092;BME280;67728;53.122;12.776;2023-02-12T01:41:42;102548.31;;;5.92;84.83
31092;BME280;67728;53.122;12.776;2023-02-12T01:43:14;102545.66;;;5.90;85.06
31092;BME280;67728;53.122;12.776;2023-02-12T01:46:57;102557.50;;;5.85;84.81
31092;BME280;67728;53.122;12.776;2023-02-12T01:48:33;102552.28;;;5.84;85.14
31092;BME280;67728;53.122;12.776;2023-02-12T01:50:10;102565.97;;;5.83;85.18
31092;BME280;67728;53.122;12.776;2023-02-12T01:51:42;102564.22;;;5.82;85.22
31092;BME280;67728;53.122;12.776;2023-02-12T01:53:18;102558.41;;;5.86;84.90
31092;BME280;67728;53.122;12.776;2023-02-12T01:54:53;102560.28;;;5.91;84.62
31092;BME280;67728;53.122;12.776;2023-02-12T01:56:27;102566.31;;;5.92;84.49
31092;BME280;67728;53.122;12.776;2023-02-12T01:57:59;102557.72;;;5.91;84.63
31092;BME280;67728;53.122;12.776;2023-02-12T01:59:30;102562.00;;;5.91;84.42
31092;BME280;67728;53.122;12.776;2023-02-12T02:01:04;102561.06;;;5.89;84.38
31092;BME280;67728;53.122;12.776;2023-02-12T02:02:36;102563.53;;;5.86;85.00
31092;BME280;67728;53.122;12.776;2023-02-12T02:04:11;102569.38;;;5.82;84.64
31092;BME280;67728;53.122;12.776;2023-02-12T02:05:48;102571.25;;;5.86;84.84
31092;BME280;67728;53.122;12.776;2023-02-12T02:07:24;102573.75;;;5.84;84.73
31092;BME280;67728;53.122;12.776;2023-02-12T02:08:56;102568.56;;;5.83;84.49
31092;BME280;67728;53.122;12.776;2023-02-12T02:10:29;102567.84;;;5.87;84.66
31092;BME280;67728;53.122;12.776;2023-02-12T02:12:01;102565.16;;;5.84;84.63
31092;BME280;67728;53.122;12.776;2023-02-12T02:13:51;102563.34;;;5.81;84.23
31092;BME280;67728;53.122;12.776;2023-02-12T02:15:42;102567.47;;;5.76;84.88
31092;BME280;67728;53.122;12.776;2023-02-12T02:17:30;102570.13;;;5.79;84.86
31092;BME280;67728;53.122;12.776;2023-02-12T02:19:11;102569.31;;;5.80;84.55
31092;BME280;67728;53.122;12.776;2023-02-12T02:21:07;102573.88;;;5.87;84.24
31092;BME280;67728;53.122;12.776;2023-02-12T02:22:48;102570.38;;;5.85;84.56
31092;BME280;67728;53.122;12.776;2023-02-12T02:24:50;102571.16;;;5.84;84.46
31092;BME280;67728;53.122;12.776;2023-02-12T02:26:49;102577.97;;;5.82;84.63
31092;BME280;67728;53.122;12.776;2023-02-12T02:28:35;102573.69;;;5.83;84.58
31092;BME280;67728;53.122;12.776;2023-02-12T02:30:21;102572.16;;;5.86;84.38
31092;BME280;67728;53.122;12.776;2023-02-12T02:31:58;102577.16;;;5.83;84.09
31092;BME280;67728;53.122;12.776;2023-02-12T02:33:36;102577.16;;;5.83;84.52
31092;BME280;67728;53.122;12.776;2023-02-12T02:35:11;102590.16;;;5.86;84.56
31092;BME280;67728;53.122;12.776;2023-02-12T02:36:49;102584.94;;;5.85;84.74
31092;BME280;67728;53.122;12.776;2023-02-12T02:38:30;102579.56;;;5.79;84.35
31092;BME280;67728;53.122;12.776;2023-02-12T02:40:09;102575.53;;;5.85;84.26
31092;BME280;67728;53.122;12.776;2023-02-12T02:41:45;102573.69;;;5.83;84.43
31092;BME280;67728;53.122;12.776;2023-02-12T02:43:22;102583.09;;;5.81;84.49
31092;BME280;67728;53.122;12.776;2023-02-12T02:45:00;102585.66;;;5.81;84.89
31092;BME280;67728;53.122;12.776;2023-02-12T02:46:40;102589.16;;;5.83;84.71
31092;BME280;67728;53.122;12.776;2023-02-12T02:48:17;102582.25;;;5.82;84.55
31092;BME280;67728;53.122;12.776;2023-02-12T02:49:53;102581.28;;;5.78;84.72
31092;BME280;67728;53.122;12.776;2023-02-12T02:51:30;102587.28;;;5.79;84.85
31092;BME280;67728;53.122;12.776;2023-02-12T02:53:05;102580.31;;;5.76;84.90
31092;BME280;67728;53.122;12.776;2023-02-12T02:54:41;102578.75;;;5.80;84.67
31092;BME280;67728;53.122;12.776;2023-02-12T02:56:16;102578.78;;;5.81;84.84
31092;BME280;67728;53.122;12.776;2023-02-12T02:57:53;102578.78;;;5.81;84.84
31092;BME280;67728;53.122;12.776;2023-02-12T02:59:29;102578.63;;;5.77;84.68
31092;BME280;67728;53.122;12.776;2023-02-12T03:01:05;102578.63;;;5.77;84.74
31092;BME280;67728;53.122;12.776;2023-02-12T03:02:41;102577.72;;;5.75;85.13
31092;BME280;67728;53.122;12.776;2023-02-12T03:04:18;102569.91;;;5.73;85.14
31092;BME280;67728;53.122;12.776;2023-02-12T03:05:54;102572.50;;;5.73;85.04
31092;BME280;67728;53.122;12.776;2023-02-12T03:07:31;102571.66;;;5.73;85.21
31092;BME280;67728;53.122;12.776;2023-02-12T03:09:09;102575.06;;;5.73;85.22
31092;BME280;67728;53.122;12.776;2023-02-12T03:10:43;102569.06;;;5.73;85.16
31092;BME280;67728;53.122;12.776;2023-02-12T03:12:19;102567.53;;;5.78;85.25
31092;BME280;67728;53.122;12.776;2023-02-12T03:13:56;102576.94;;;5.77;85.12
31092;BME280;67728;53.122;12.776;2023-02-12T03:15:32;102569.16;;;5.76;85.16
31092;BME280;67728;53.122;12.776;2023-02-12T03:17:08;102572.69;;;5.78;85.14
31092;BME280;67728;53.122;12.776;2023-02-12T03:18:45;102569.16;;;5.76;85.21
31092;BME280;67728;53.122;12.776;2023-02-12T03:20:23;102571.56;;;5.71;85.02
31092;BME280;67728;53.122;12.776;2023-02-12T03:21:59;102577.56;;;5.70;85.06
31092;BME280;67728;53.122;12.776;2023-02-12T03:23:37;102573.91;;;5.64;85.69
31092;BME280;67728;53.122;12.776;2023-02-12T03:25:13;102583.19;;;5.60;85.50
31092;BME280;67728;53.122;12.776;2023-02-12T03:26:48;102580.59;;;5.59;85.79
31092;BME280;67728;53.122;12.776;2023-02-12T03:28:25;102579.75;;;5.60;85.70
31092;BME280;67728;53.122;12.776;2023-02-12T03:29:59;102583.28;;;5.62;85.56
31092;BME280;67728;53.122;12.776;2023-02-12T03:31:36;102581.50;;;5.61;85.52
31092;BME280;67728;53.122;12.776;2023-02-12T03:33:18;102583.16;;;5.59;85.64
31092;BME280;67728;53.122;12.776;2023-02-12T03:35:01;102589.97;;;5.57;85.33
31092;BME280;67728;53.122;12.776;2023-02-12T03:36:42;102580.38;;;5.53;85.74
31092;BME280;67728;53.122;12.776;2023-02-12T03:38:22;102596.69;;;5.53;85.99
31092;BME280;67728;53.122;12.776;2023-02-12T03:40:01;102584.72;;;5.54;85.94
31092;BME280;67728;53.122;12.776;2023-02-12T03:41:41;102585.50;;;5.53;86.00
31092;BME280;67728;53.122;12.776;2023-02-12T03:43:18;102593.19;;;5.51;86.04
31092;BME280;67728;53.122;12.776;2023-02-12T03:44:56;102592.25;;;5.49;86.29
31092;BME280;67728;53.122;12.776;2023-02-12T03:46:37;102593.09;;;5.48;86.25
31092;BME280;67728;53.122;12.776;2023-02-12T03:48:13;102597.28;;;5.46;86.39
31092;BME280;67728;53.122;12.776;2023-02-12T03:49:56;102590.44;;;5.47;86.47
31092;BME280;67728;53.122;12.776;2023-02-12T03:51:34;102592.22;;;5.48;86.48
31092;BME280;67728;53.122;12.776;2023-02-12T03:53:07;102591.59;;;5.55;86.48
31092;BME280;67728;53.122;12.776;2023-02-12T03:54:37;102594.22;;;5.56;86.52
31092;BME280;67728;53.122;12.776;2023-02-12T03:56:12;102587.53;;;5.61;86.48
31092;BME280;67728;53.122;12.776;2023-02-12T03:57:49;102586.63;;;5.59;86.40
31092;BME280;67728;53.122;12.776;2023-02-12T03:59:24;102583.94;;;5.56;86.38
31092;BME280;67728;53.122;12.776;2023-02-12T04:00:55;102591.44;;;5.50;86.57
31092;BME280;67728;53.122;12.776;2023-02-12T04:02:27;102584.59;;;5.51;86.43
31092;BME280;67728;53.122;12.776;2023-02-12T04:04:02;102593.09;;;5.48;86.59
31092;BME280;67728;53.122;12.776;2023-02-12T04:05:35;102594.81;;;5.49;86.49
31092;BME280;67728;53.122;12.776;2023-02-12T04:07:07;102602.72;;;5.54;86.45
31092;BME280;67728;53.122;12.776;2023-02-12T04:08:39;102596.63;;;5.52;86.66
31092;BME280;67728;53.122;12.776;2023-02-12T04:10:10;102604.41;;;5.53;86.58
31092;BME280;67728;53.122;12.776;2023-02-12T04:11:56;102599.97;;;5.49;86.97
31092;BME280;67728;53.122;12.776;2023-02-12T04:13:37;102599.13;;;5.49;86.62
31092;BME280;67728;53.122;12.776;2023-02-12T04:15:28;102597.34;;;5.48;86.74
31092;BME280;67728;53.122;12.776;2023-02-12T04:17:08;102595.59;;;5.47;86.90
31092;BME280;67728;53.122;12.776;2023-02-12T04:18:47;102601.63;;;5.47;86.73
31092;BME280;67728;53.122;12.776;2023-02-12T04:20:25;102603.19;;;5.43;86.63
31092;BME280;67728;53.122;12.776;2023-02-12T04:22:18;102609.19;;;5.42;86.95
31092;BME280;67728;53.122;12.776;2023-02-12T04:24:01;102608.97;;;5.36;86.78
31092;BME280;67728;53.122;12.776;2023-02-12T04:25:43;102619.28;;;5.38;86.96
31092;BME280;67728;53.122;12.776;2023-02-12T04:27:22;102617.59;;;5.38;87.01
31092;BME280;67728;53.122;12.776;2023-02-12T04:29:02;102618.44;;;5.37;86.87
31092;BME280;67728;53.122;12.776;2023-02-12T04:30:41;102617.59;;;5.38;87.23
31092;BME280;67728;53.122;12.776;2023-02-12T04:32:19;102616.72;;;5.38;87.03
31092;BME280;67728;53.122;12.776;2023-02-12T04:33:59;102624.63;;;5.42;87.55
31092;BME280;67728;53.122;12.776;2023-02-12T04:35:41;102626.34;;;5.43;87.25
31092;BME280;67728;53.122;12.776;2023-02-12T04:37:17;102626.28;;;5.40;87.27
31092;BME280;67728;53.122;12.776;2023-02-12T04:38:51;102618.63;;;5.43;87.38
31092;BME280;67728;53.122;12.776;2023-02-12T04:40:25;102623.69;;;5.40;87.16
31092;BME280;67728;53.122;12.776;2023-02-12T04:41:57;102622.06;;;5.42;86.70
31092;BME280;67728;53.122;12.776;2023-02-12T04:43:31;102623.69;;;5.40;87.14
31092;BME280;67728;53.122;12.776;2023-02-12T04:45:04;102631.47;;;5.42;86.92
31092;BME280;67728;53.122;12.776;2023-02-12T04:46:36;102627.09;;;5.39;86.86
31092;BME280;67728;53.122;12.776;2023-02-12T04:48:07;102627.19;;;5.42;87.02
31092;BME280;67728;53.122;12.776;2023-02-12T04:49:38;102635.84;;;5.44;87.23
31092;BME280;67728;53.122;12.776;2023-02-12T04:51:10;102630.53;;;5.40;87.10
31092;BME280;67728;53.122;12.776;2023-02-12T04:52:43;102629.53;;;5.36;86.67
31092;BME280;67728;53.122;12.776;2023-02-12T04:54:16;102631.31;;;5.37;87.30
31092;BME280;67728;53.122;12.776;2023-02-12T04:55:48;102628.72;;;5.37;87.20
31092;BME280;67728;53.122;12.776;2023-02-12T04:57:20;102633.03;;;5.38;87.34
31092;BME280;67728;53.122;12.776;2023-02-12T04:58:51;102633.16;;;5.41;87.32
31092;BME280;67728;53.122;12.776;2023-02-12T05:00:23;102626.16;;;5.37;87.21
31092;BME280;67728;53.122;12.776;2023-02-12T05:01:54;102630.53;;;5.40;87.21
31092;BME280;67728;53.122;12.776;2023-02-12T05:03:25;102631.41;;;5.40;87.23
31092;BME280;67728;53.122;12.776;2023-02-12T05:04:57;102632.16;;;5.38;87.12
31092;BME280;67728;53.122;12.776;2023-02-12T05:06:27;102625.19;;;5.35;87.12
31092;BME280;67728;53.122;12.776;2023-02-12T05:08:01;102635.56;;;5.37;87.42
31092;BME280;67728;53.122;12.776;2023-02-12T05:09:33;102626.09;;;5.36;87.51
31092;BME280;67728;53.122;12.776;2023-02-12T05:11:04;102625.28;;;5.37;87.49
31092;BME280;67728;53.122;12.776;2023-02-12T05:12:36;102630.25;;;5.32;87.33
31092;BME280;67728;53.122;12.776;2023-02-12T05:14:07;102621.59;;;5.30;87.31
31092;BME280;67728;53.122;12.776;2023-02-12T05:15:38;102622.56;;;5.32;87.31
31092;BME280;67728;53.122;12.776;2023-02-12T05:17:09;102633.00;;;5.37;87.46
31092;BME280;67728;53.122;12.776;2023-02-12T05:18:41;102628.88;;;5.42;87.27
31092;BME280;67728;53.122;12.776;2023-02-12T05:20:13;102636.59;;;5.42;87.21
31092;BME280;67728;53.122;12.776;2023-02-12T05:21:44;102630.66;;;5.43;87.23
31092;BME280;67728;53.122;12.776;2023-02-12T05:23:17;102633.13;;;5.40;87.19
31092;BME280;67728;53.122;12.776;2023-02-12T05:24:49;102631.41;;;5.40;87.10
31092;BME280;67728;53.122;12.776;2023-02-12T05:26:21;102626.34;;;5.43;87.08
31092;BME280;67728;53.122;12.776;2023-02-12T05:27:53;102635.81;;;5.43;86.94
31092;BME280;67728;53.122;12.776;2023-02-12T05:29:25;102634.81;;;5.39;87.11
31092;BME280;67728;53.122;12.776;2023-02-12T05:30:58;102636.44;;;5.37;87.26
31092;BME280;67728;53.122;12.776;2023-02-12T05:32:30;102639.78;;;5.35;87.24
31092;BME280;67728;53.122;12.776;2023-02-12T05:34:01;102634.69;;;5.36;87.14
31092;BME280;67728;53.122;12.776;2023-02-12T05:35:33;102641.59;;;5.37;87.41
31092;BME280;67728;53.122;12.776;2023-02-12T05:37:04;102643.28;;;5.37;87.23
31092;BME280;67728;53.122;12.776;2023-02-12T05:38:37;102645.78;;;5.35;87.57
31092;BME280;67728;53.122;12.776;2023-02-12T05:40:09;102644.94;;;5.35;87.22
31092;BME280;67728;53.122;12.776;2023-02-12T05:41:40;102646.75;;;5.37;87.65
31092;BME280;67728;53.122;12.776;2023-02-12T05:43:13;102645.09;;;5.39;87.41
31092;BME280;67728;53.122;12.776;2023-02-12T05:44:44;102647.91;;;5.46;87.35
31092;BME280;67728;53.122;12.776;2023-02-12T05:46:16;102642.75;;;5.46;87.25
31092;BME280;67728;53.122;12.776;2023-02-12T05:47:47;102645.31;;;5.46;87.08
31092;BME280;67728;53.122;12.776;2023-02-12T05:49:19;102650.34;;;5.42;87.05
31092;BME280;67728;53.122;12.776;2023-02-12T05:50:50;102654.63;;;5.42;86.96
31092;BME280;67728;53.122;12.776;2023-02-12T05:52:22;102659.91;;;5.47;86.92
31092;BME280;67728;53.122;12.776;2023-02-12T05:53:57;102655.53;;;5.44;86.80
31092;BME280;67728;53.122;12.776;2023-02-12T05:55:29;102657.22;;;5.43;87.00
31092;BME280;67728;53.122;12.776;2023-02-12T05:57:01;102653.75;;;5.41;86.92
31092;BME280;67728;53.122;12.776;2023-02-12T05:58:31;102653.75;;;5.41;86.89
31092;BME280;67728;53.122;12.776;2023-02-12T06:00:04;102652.00;;;5.40;86.95
31092;BME280;67728;53.122;12.776;2023-02-12T06:01:38;102661.53;;;5.43;86.88
31092;BME280;67728;53.122;12.776;2023-02-12T06:03:10;102670.06;;;5.42;86.95
31092;BME280;67728;53.122;12.776;2023-02-12T06:04:42;102670.81;;;5.39;86.88
31092;BME280;67728;53.122;12.776;2023-02-12T06:06:14;102662.38;;;5.43;86.93
31092;BME280;67728;53.122;12.776;2023-02-12T06:07:44;102677.16;;;5.49;86.91
31092;BME280;67728;53.122;12.776;2023-02-12T06:09:17;102681.13;;;5.39;87.02
31092;BME280;67728;53.122;12.776;2023-02-12T06:10:49;102680.34;;;5.42;87.22
31092;BME280;67728;53.122;12.776;2023-02-12T06:12:20;102677.78;;;5.42;87.01
31092;BME280;67728;53.122;12.776;2023-02-12T06:13:52;102677.91;;;5.45;87.09
31092;BME280;67728;53.122;12.776;2023-02-12T06:15:23;102676.19;;;5.46;87.00
31092;BME280;67728;53.122;12.776;2023-02-12T06:16:54;102674.28;;;5.40;86.85
31092;BME280;67728;53.122;12.776;2023-02-12T06:18:26;102682.81;;;5.39;86.87
31092;BME280;67728;53.122;12.776;2023-02-12T06:19:58;102688.84;;;5.39;86.88
31092;BME280;67728;53.122;12.776;2023-02-12T06:21:30;102687.19;;;5.41;86.87
31092;BME280;67728;53.122;12.776;2023-02-12T06:23:01;102686.38;;;5.42;86.82
31092;BME280;67728;53.122;12.776;2023-02-12T06:24:35;102686.25;;;5.39;86.91
31092;BME280;67728;53.122;12.776;2023-02-12T06:26:07;102687.16;;;5.40;86.63
31092;BME280;67728;53.122;12.776;2023-02-12T06:27:38;102687.03;;;5.37;86.59
31092;BME280;67728;53.122;12.776;2023-02-12T06:29:09;102691.25;;;5.35;86.63
31092;BME280;67728;53.122;12.776;2023-02-12T06:30:42;102697.19;;;5.34;86.46
31092;BME280;67728;53.122;12.776;2023-02-12T06:32:13;102692.88;;;5.33;86.79
31092;BME280;67728;53.122;12.776;2023-02-12T06:33:44;102696.19;;;5.30;86.58
31092;BME280;67728;53.122;12.776;2023-02-12T06:35:16;102693.41;;;5.24;86.91
31092;BME280;67728;53.122;12.776;2023-02-12T06:36:48;102693.50;;;5.27;87.00
31092;BME280;67728;53.122;12.776;2023-02-12T06:38:20;102696.19;;;5.30;86.71
31092;BME280;67728;53.122;12.776;2023-02-12T06:39:52;102695.22;;;5.27;86.62
31092;BME280;67728;53.122;12.776;2023-02-12T06:41:24;102696.97;;;5.28;86.88
31092;BME280;67728;53.122;12.776;2023-02-12T06:42:56;102698.78;;;5.30;87.32
31092;BME280;67728;53.122;12.776;2023-02-12T06:44:28;102698.00;;;5.33;87.05
31092;BME280;67728;53.122;12.776;2023-02-12T06:46:00;102703.28;;;5.36;87.01
31092;BME280;67728;53.122;12.776;2023-02-12T06:47:31;102709.31;;;5.36;87.07
31092;BME280;67728;53.122;12.776;2023-02-12T06:49:03;102713.66;;;5.37;87.42
31092;BME280;67728;53.122;12.776;2023-02-12T06:50:34;102708.50;;;5.37;87.05
31092;BME280;67728;53.122;12.776;2023-02-12T06:52:06;102713.66;;;5.37;87.04
31092;BME280;67728;53.122;12.776;2023-02-12T06:53:38;102711.91;;;5.38;87.08
31092;BME280;67728;53.122;12.776;2023-02-12T06:55:11;102712.00;;;5.39;87.25
31092;BME280;67728;53.122;12.776;2023-02-12T06:56:43;102710.34;;;5.41;86.61
31092;BME280;67728;53.122;12.776;2023-02-12T06:58:15;102708.63;;;5.40;87.35
31092;BME280;67728;53.122;12.776;2023-02-12T06:59:47;102713.00;;;5.43;87.40
31092;BME280;67728;53.122;12.776;2023-02-12T07:01:21;102714.72;;;5.44;87.52
31092;BME280;67728;53.122;12.776;2023-02-12T07:02:54;102713.09;;;5.46;87.58
31092;BME280;67728;53.122;12.776;2023-02-12T07:04:26;102711.34;;;5.45;87.48
31092;BME280;67728;53.122;12.776;2023-02-12T07:05:57;102710.47;;;5.44;87.50
31092;BME280;67728;53.122;12.776;2023-02-12T07:07:29;102720.88;;;5.48;87.78
31092;BME280;67728;53.122;12.776;2023-02-12T07:09:01;102724.13;;;5.43;87.73
31092;BME280;67728;53.122;12.776;2023-02-12T07:10:35;102718.22;;;5.46;88.08
31092;BME280;67728;53.122;12.776;2023-02-12T07:12:06;102718.94;;;5.42;88.11
31092;BME280;67728;53.122;12.776;2023-02-12T07:13:39;102714.69;;;5.42;88.08
31092;BME280;67728;53.122;12.776;2023-02-12T07:15:11;102718.06;;;5.41;88.31
31092;BME280;67728;53.122;12.776;2023-02-12T07:16:43;102718.16;;;5.43;88.31
31092;BME280;67728;53.122;12.776;2023-02-12T07:18:15;102721.41;;;5.39;88.01
31092;BME280;67728;53.122;12.776;2023-02-12T07:19:47;102725.78;;;5.41;88.52
31092;BME280;67728;53.122;12.776;2023-02-12T07:21:18;102724.06;;;5.40;88.56
31092;BME280;67728;53.122;12.776;2023-02-12T07:22:50;102730.13;;;5.42;88.42
31092;BME280;67728;53.122;12.776;2023-02-12T07:24:22;102729.28;;;5.43;88.53
31092;BME280;67728;53.122;12.776;2023-02-12T07:25:55;102731.97;;;5.47;88.62
31092;BME280;67728;53.122;12.776;2023-02-12T07:27:28;102730.38;;;5.49;88.44
31092;BME280;67728;53.122;12.776;2023-02-12T07:29:00;102732.09;;;5.50;88.54
31092;BME280;67728;53.122;12.776;2023-02-12T07:30:31;102739.91;;;5.51;88.41
31092;BME280;67728;53.122;12.776;2023-02-12T07:32:02;102739.94;;;5.53;88.52
31092;BME280;67728;53.122;12.776;2023-02-12T07:33:35;102747.66;;;5.53;88.65
31092;BME280;67728;53.122;12.776;2023-02-12T07:35:07;102747.72;;;5.54;88.73
31092;BME280;67728;53.122;12.776;2023-02-12T07:36:39;102743.31;;;5.52;88.84
31092;BME280;67728;53.122;12.776;2023-02-12T07:38:11;102745.91;;;5.52;88.34
31092;BME280;67728;53.122;12.776;2023-02-12T07:39:43;102749.22;;;5.49;88.45
31092;BME280;67728;53.122;12.776;2023-02-12T07:41:17;102748.66;;;5.56;87.90
31092;BME280;67728;53.122;12.776;2023-02-12T07:42:53;102750.72;;;5.65;88.81
31092;BME280;67728;53.122;12.776;2023-02-12T07:44:25;102752.41;;;5.64;88.62
31092;BME280;67728;53.122;12.776;2023-02-12T07:46:05;102751.56;;;5.65;88.55
31092;BME280;67728;53.122;12.776;2023-02-12T07:47:37;102754.25;;;5.68;88.75
31092;BME280;67728;53.122;12.776;2023-02-12T07:49:12;102757.59;;;5.66;88.10
31092;BME280;67728;53.122;12.776;2023-02-12T07:50:43;102755.94;;;5.68;88.26
31092;BME280;67728;53.122;12.776;2023-02-12T07:52:14;102749.22;;;5.71;88.71
31092;BME280;67728;53.122;12.776;2023-02-12T07:53:47;102750.91;;;5.71;88.73
31092;BME280;67728;53.122;12.776;2023-02-12T07:55:18;102757.88;;;5.73;88.35
31092;BME280;67728;53.122;12.776;2023-02-12T07:56:51;102757.09;;;5.76;88.51
31092;BME280;67728;53.122;12.776;2023-02-12T07:58:23;102761.44;;;5.77;88.37
31092;BME280;67728;53.122;12.776;2023-02-12T07:59:55;102760.56;;;5.76;88.46
31092;BME280;67728;53.122;12.776;2023-02-12T08:01:28;102766.59;;;5.77;88.35
31092;BME280;67728;53.122;12.776;2023-02-12T08:03:00;102763.22;;;5.78;88.26
31092;BME280;67728;53.122;12.776;2023-02-12T08:04:31;102768.34;;;5.78;88.38
31092;BME280;67728;53.122;12.776;2023-02-12T08:06:06;102764.91;;;5.77;88.59
31092;BME280;67728;53.122;12.776;2023-02-12T08:07:37;102765.78;;;5.78;88.96
31092;BME280;67728;53.122;12.776;2023-02-12T08:09:10;102768.25;;;5.75;88.91
31092;BME280;67728;53.122;12.776;2023-02-12T08:10:42;102768.41;;;5.79;88.87
31092;BME280;67728;53.122;12.776;2023-02-12T08:12:15;102767.84;;;5.86;88.78
31092;BME280;67728;53.122;12.776;2023-02-12T08:13:47;102767.78;;;5.85;89.09